sensor_id;sensor_type;location;lat;lon;timestamp;temperature;humidity
53045;DHT22;38930;52.766;6.884;2023-12-29T00:02:10;9.70;99.90
53045;DHT22;38930;52.766;6.884;2023-12-29T00:04:36;9.90;99.90
53045;DHT22;38930;52.766;6.884;2023-12-29T00:07:02;10.00;99.90
53045;DHT22;38930;52.766;6.884;2023-12-29T00:09:28;9.50;99.90
53045;DHT22;38930;52.766;6.884;2023-12-29T00:11:54;10.30;99.90
53045;DHT22;38930;52.766;6.884;2023-12-29T00:14:22;9.90;99.90
53045;DHT22;38930;52.766;6.884;2023-12-29T00:16:48;9.50;99.90
53045;DHT22;38930;52.766;6.884;2023-12-29T00:19:15;9.60;99.90
53045;DHT22;38930;52.766;6.884;2023-12-29T00:21:40;9.70;99.90
53045;DHT22;38930;52.766;6.884;2023-12-29T00:24:06;9.70;99.90
53045;DHT22;38930;52.766;6.884;2023-12-29T00:26:31;9.40;99.90
53045;DHT22;38930;52.766;6.884;2023-12-29T00:28:57;9.40;99.90
53045;DHT22;38930;52.766;6.884;2023-12-29T00:31:23;10.30;99.90
53045;DHT22;38930;52.766;6.884;2023-12-29T00:33:48;9.40;99.90
53045;DHT22;38930;52.766;6.884;2023-12-29T00:36:18;9.50;99.90
53045;DHT22;38930;52.766;6.884;2023-12-29T00:38:44;9.50;99.90
53045;DHT22;38930;52.766;6.884;2023-12-29T00:41:09;9.40;99.90
53045;DHT22;38930;52.766;6.884;2023-12-29T00:43:36;9.40;99.90
53045;DHT22;38930;52.766;6.884;2023-12-29T00:46:05;9.30;99.90
53045;DHT22;38930;52.766;6.884;2023-12-29T00:48:31;9.20;99.90
53045;DHT22;38930;52.766;6.884;2023-12-29T00:50:57;9.20;99.90
53045;DHT22;38930;52.766;6.884;2023-12-29T00:53:22;9.20;99.90
53045;DHT22;38930;52.766;6.884;2023-12-29T00:55:48;9.20;99.90
53045;DHT22;38930;52.766;6.884;2023-12-29T00:58:14;9.20;99.90
53045;DHT22;38930;52.766;6.884;2023-12-29T01:00:39;9.20;99.90
53045;DHT22;38930;52.766;6.884;2023-12-29T01:03:05;9.20;99.90
53045;DHT22;38930;52.766;6.884;2023-12-29T01:05:31;9.10;99.90
53045;DHT22;38930;52.766;6.884;2023-12-29T01:07:56;9.20;99.90
53045;DHT22;38930;52.766;6.884;2023-12-29T01:10:22;9.10;99.90
53045;DHT22;38930;52.766;6.884;2023-12-29T01:12:48;9.70;99.90
53045;DHT22;38930;52.766;6.884;2023-12-29T01:15:14;9.20;99.90
53045;DHT22;38930;52.766;6.884;2023-12-29T01:17:40;9.20;99.90
53045;DHT22;38930;52.766;6.884;2023-12-29T01:20:06;9.10;99.90
53045;DHT22;38930;52.766;6.884;2023-12-29T01:22:31;9.20;99.90
53045;DHT22;38930;52.766;6.884;2023-12-29T01:24:59;9.20;99.90
53045;DHT22;38930;52.766;6.884;2023-12-29T01:27:25;9.10;99.90
53045;DHT22;38930;52.766;6.884;2023-12-29T01:29:50;9.10;99.90
53045;DHT22;38930;52.766;6.884;2023-12-29T01:32:18;9.10;99.90
53045;DHT22;38930;52.766;6.884;2023-12-29T01:34:43;9.10;99.90
53045;DHT22;38930;52.766;6.884;2023-12-29T01:37:09;9.70;99.90
53045;DHT22;38930;52.766;6.884;2023-12-29T01:39:34;9.10;99.90
53045;DHT22;38930;52.766;6.884;2023-12-29T01:42:00;9.10;99.90
53045;DHT22;38930;52.766;6.884;2023-12-29T01:44:26;9.10;99.90
53045;DHT22;38930;52.766;6.884;2023-12-29T01:46:55;9.10;99.90
53045;DHT22;38930;52.766;6.884;2023-12-29T01:49:22;9.10;99.90
53045;DHT22;38930;52.766;6.884;2023-12-29T01:51:58;9.10;99.90
53045;DHT22;38930;52.766;6.884;2023-12-29T01:54:26;9.10;99.90
53045;DHT22;38930;52.766;6.884;2023-12-29T01:56:54;9.10;99.90
53045;DHT22;38930;52.766;6.884;2023-12-29T01:59:22;9.10;99.90
53045;DHT22;38930;52.766;6.884;2023-12-29T02:01:48;9.40;99.90
53045;DHT22;38930;52.766;6.884;2023-12-29T02:04:15;9.20;99.90
53045;DHT22;38930;52.766;6.884;2023-12-29T02:06:43;9.20;99.90
53045;DHT22;38930;52.766;6.884;2023-12-29T02:09:09;9.90;99.90
53045;DHT22;38930;52.766;6.884;2023-12-29T02:11:35;9.80;99.90
53045;DHT22;38930;52.766;6.884;2023-12-29T02:14:01;9.40;99.90
53045;DHT22;38930;52.766;6.884;2023-12-29T02:22:01;9.20;99.90
53045;DHT22;38930;52.766;6.884;2023-12-29T02:24:26;10.00;99.90
53045;DHT22;38930;52.766;6.884;2023-12-29T02:26:58;9.20;99.90
53045;DHT22;38930;52.766;6.884;2023-12-29T02:29:30;9.20;99.90
53045;DHT22;38930;52.766;6.884;2023-12-29T02:31:59;9.70;99.90
53045;DHT22;38930;52.766;6.884;2023-12-29T02:34:25;9.20;99.90
53045;DHT22;38930;52.766;6.884;2023-12-29T02:36:53;9.20;99.90
53045;DHT22;38930;52.766;6.884;2023-12-29T02:39:20;9.20;99.90
53045;DHT22;38930;52.766;6.884;2023-12-29T02:41:45;9.20;99.90
53045;DHT22;38930;52.766;6.884;2023-12-29T02:44:12;9.20;99.90
53045;DHT22;38930;52.766;6.884;2023-12-29T02:46:37;9.30;99.90
53045;DHT22;38930;52.766;6.884;2023-12-29T02:49:03;9.30;99.90
53045;DHT22;38930;52.766;6.884;2023-12-29T02:51:28;9.30;99.90
53045;DHT22;38930;52.766;6.884;2023-12-29T02:53:54;9.20;99.90
53045;DHT22;38930;52.766;6.884;2023-12-29T02:56:20;9.30;99.90
53045;DHT22;38930;52.766;6.884;2023-12-29T02:58:45;9.30;99.90
53045;DHT22;38930;52.766;6.884;2023-12-29T03:01:13;10.10;99.90
53045;DHT22;38930;52.766;6.884;2023-12-29T03:03:39;9.30;99.90
53045;DHT22;38930;52.766;6.884;2023-12-29T03:06:06;9.30;99.90
53045;DHT22;38930;52.766;6.884;2023-12-29T03:08:31;9.40;99.90
53045;DHT22;38930;52.766;6.884;2023-12-29T03:10:58;9.90;99.90
53045;DHT22;38930;52.766;6.884;2023-12-29T03:13:24;9.50;99.90
53045;DHT22;38930;52.766;6.884;2023-12-29T03:15:50;9.40;99.90
53045;DHT22;38930;52.766;6.884;2023-12-29T03:18:15;9.50;99.90
53045;DHT22;38930;52.766;6.884;2023-12-29T03:20:41;9.50;99.90
53045;DHT22;38930;52.766;6.884;2023-12-29T03:23:06;9.50;99.90
53045;DHT22;38930;52.766;6.884;2023-12-29T03:25:32;9.50;99.90
53045;DHT22;38930;52.766;6.884;2023-12-29T03:27:59;9.50;99.90
53045;DHT22;38930;52.766;6.884;2023-12-29T03:30:25;9.90;99.90
53045;DHT22;38930;52.766;6.884;2023-12-29T03:32:51;9.50;99.90
53045;DHT22;38930;52.766;6.884;2023-12-29T03:35:17;10.00;99.90
53045;DHT22;38930;52.766;6.884;2023-12-29T03:37:43;9.50;99.90
53045;DHT22;38930;52.766;6.884;2023-12-29T03:40:08;10.30;99.90
53045;DHT22;38930;52.766;6.884;2023-12-29T03:42:35;9.40;99.90
53045;DHT22;38930;52.766;6.884;2023-12-29T03:45:00;9.30;99.90
53045;DHT22;38930;52.766;6.884;2023-12-29T03:47:26;9.30;99.90
53045;DHT22;38930;52.766;6.884;2023-12-29T03:49:52;9.30;99.90
53045;DHT22;38930;52.766;6.884;2023-12-29T03:52:17;9.30;99.90
53045;DHT22;38930;52.766;6.884;2023-12-29T03:54:43;9.40;99.90
53045;DHT22;38930;52.766;6.884;2023-12-29T03:57:08;9.30;99.90
53045;DHT22;38930;52.766;6.884;2023-12-29T03:59:36;9.30;99.90
53045;DHT22;38930;52.766;6.884;2023-12-29T04:02:03;9.30;99.90
53045;DHT22;38930;52.766;6.884;2023-12-29T04:04:28;9.30;99.90
53045;DHT22;38930;52.766;6.884;2023-12-29T04:06:54;9.30;99.90
53045;DHT22;38930;52.766;6.884;2023-12-29T04:09:19;9.30;99.90
53045;DHT22;38930;52.766;6.884;2023-12-29T04:11:46;9.30;99.90
53045;DHT22;38930;52.766;6.884;2023-12-29T04:14:11;9.70;99.90
53045;DHT22;38930;52.766;6.884;2023-12-29T04:16:38;9.40;99.90
53045;DHT22;38930;52.766;6.884;2023-12-29T04:19:04;9.40;99.90
53045;DHT22;38930;52.766;6.884;2023-12-29T04:21:30;9.90;99.90
53045;DHT22;38930;52.766;6.884;2023-12-29T04:23:56;9.50;99.90
53045;DHT22;38930;52.766;6.884;2023-12-29T04:26:21;9.50;99.90
53045;DHT22;38930;52.766;6.884;2023-12-29T04:28:47;9.50;99.90
53045;DHT22;38930;52.766;6.884;2023-12-29T04:31:12;9.50;99.90
53045;DHT22;38930;52.766;6.884;2023-12-29T04:33:38;9.40;99.90
53045;DHT22;38930;52.766;6.884;2023-12-29T04:36:06;9.40;99.90
53045;DHT22;38930;52.766;6.884;2023-12-29T04:38:32;10.30;99.90
53045;DHT22;38930;52.766;6.884;2023-12-29T04:40:58;9.30;99.90
53045;DHT22;38930;52.766;6.884;2023-12-29T04:43:23;9.30;99.90
53045;DHT22;38930;52.766;6.884;2023-12-29T04:45:49;9.30;99.90
53045;DHT22;38930;52.766;6.884;2023-12-29T04:48:15;9.30;99.90
53045;DHT22;38930;52.766;6.884;2023-12-29T04:50:40;9.40;99.90
53045;DHT22;38930;52.766;6.884;2023-12-29T04:53:06;9.30;99.90
53045;DHT22;38930;52.766;6.884;2023-12-29T04:55:31;9.50;99.90
53045;DHT22;38930;52.766;6.884;2023-12-29T04:57:57;9.30;99.90
53045;DHT22;38930;52.766;6.884;2023-12-29T05:00:22;9.60;99.90
53045;DHT22;38930;52.766;6.884;2023-12-29T05:02:48;9.30;99.90
53045;DHT22;38930;52.766;6.884;2023-12-29T05:05:14;9.30;99.90
53045;DHT22;38930;52.766;6.884;2023-12-29T05:07:40;9.30;99.90
53045;DHT22;38930;52.766;6.884;2023-12-29T05:10:06;9.70;99.90
53045;DHT22;38930;52.766;6.884;2023-12-29T05:12:32;9.30;99.90
53045;DHT22;38930;52.766;6.884;2023-12-29T05:14:58;9.30;99.90
53045;DHT22;38930;52.766;6.884;2023-12-29T05:17:24;9.30;99.90
53045;DHT22;38930;52.766;6.884;2023-12-29T05:19:49;9.30;99.90
53045;DHT22;38930;52.766;6.884;2023-12-29T05:22:15;9.30;99.90
53045;DHT22;38930;52.766;6.884;2023-12-29T05:24:43;9.30;99.90
53045;DHT22;38930;52.766;6.884;2023-12-29T05:27:08;9.20;99.90
53045;DHT22;38930;52.766;6.884;2023-12-29T05:29:34;9.30;99.90
53045;DHT22;38930;52.766;6.884;2023-12-29T05:32:00;9.20;99.90
53045;DHT22;38930;52.766;6.884;2023-12-29T05:34:28;9.70;99.90
53045;DHT22;38930;52.766;6.884;2023-12-29T05:36:53;9.20;99.90
53045;DHT22;38930;52.766;6.884;2023-12-29T05:39:19;9.30;99.90
53045;DHT22;38930;52.766;6.884;2023-12-29T05:41:45;9.20;99.90
53045;DHT22;38930;52.766;6.884;2023-12-29T05:44:10;9.30;99.90
53045;DHT22;38930;52.766;6.884;2023-12-29T05:46:36;9.20;99.90
53045;DHT22;38930;52.766;6.884;2023-12-29T05:49:02;9.20;99.90
53045;DHT22;38930;52.766;6.884;2023-12-29T05:51:27;9.20;99.90
53045;DHT22;38930;52.766;6.884;2023-12-29T05:53:53;9.20;99.90
53045;DHT22;38930;52.766;6.884;2023-12-29T05:56:19;9.20;99.90
53045;DHT22;38930;52.766;6.884;2023-12-29T05:58:45;9.20;99.90
53045;DHT22;38930;52.766;6.884;2023-12-29T06:01:11;9.20;99.90
53045;DHT22;38930;52.766;6.884;2023-12-29T06:03:37;9.20;99.90
53045;DHT22;38930;52.766;6.884;2023-12-29T06:06:03;9.20;99.90
53045;DHT22;38930;52.766;6.884;2023-12-29T06:08:28;9.10;99.90
53045;DHT22;38930;52.766;6.884;2023-12-29T06:10:54;9.10;99.90
53045;DHT22;38930;52.766;6.884;2023-12-29T06:13:20;9.10;99.90
53045;DHT22;38930;52.766;6.884;2023-12-29T06:15:45;9.10;99.90
53045;DHT22;38930;52.766;6.884;2023-12-29T06:18:11;9.10;99.90
53045;DHT22;38930;52.766;6.884;2023-12-29T06:20:37;9.10;99.90
53045;DHT22;38930;52.766;6.884;2023-12-29T06:23:02;9.10;99.90
53045;DHT22;38930;52.766;6.884;2023-12-29T06:25:28;9.20;99.90
53045;DHT22;38930;52.766;6.884;2023-12-29T06:27:54;9.20;99.90
53045;DHT22;38930;52.766;6.884;2023-12-29T06:30:20;9.10;99.90
53045;DHT22;38930;52.766;6.884;2023-12-29T06:32:46;9.10;99.90
53045;DHT22;38930;52.766;6.884;2023-12-29T06:35:12;9.10;99.90
53045;DHT22;38930;52.766;6.884;2023-12-29T06:37:38;9.20;99.90
53045;DHT22;38930;52.766;6.884;2023-12-29T06:40:07;9.10;99.90
53045;DHT22;38930;52.766;6.884;2023-12-29T06:42:33;9.20;99.90
53045;DHT22;38930;52.766;6.884;2023-12-29T06:44:58;9.10;99.90
53045;DHT22;38930;52.766;6.884;2023-12-29T06:47:24;9.20;99.90
53045;DHT22;38930;52.766;6.884;2023-12-29T06:49:50;9.10;99.90
53045;DHT22;38930;52.766;6.884;2023-12-29T06:52:16;9.10;99.90
53045;DHT22;38930;52.766;6.884;2023-12-29T06:54:42;9.20;99.90
53045;DHT22;38930;52.766;6.884;2023-12-29T06:57:07;9.10;99.90
53045;DHT22;38930;52.766;6.884;2023-12-29T06:59:33;9.10;99.90
53045;DHT22;38930;52.766;6.884;2023-12-29T07:01:59;9.10;99.90
53045;DHT22;38930;52.766;6.884;2023-12-29T07:04:25;9.10;99.90
53045;DHT22;38930;52.766;6.884;2023-12-29T07:06:50;9.10;99.90
53045;DHT22;38930;52.766;6.884;2023-12-29T07:09:16;9.10;99.90
53045;DHT22;38930;52.766;6.884;2023-12-29T07:11:42;9.10;99.90
53045;DHT22;38930;52.766;6.884;2023-12-29T07:14:12;9.10;99.90
53045;DHT22;38930;52.766;6.884;2023-12-29T07:16:37;9.10;99.90
53045;DHT22;38930;52.766;6.884;2023-12-29T07:19:03;9.10;99.90
53045;DHT22;38930;52.766;6.884;2023-12-29T07:21:29;9.10;99.90
53045;DHT22;38930;52.766;6.884;2023-12-29T07:23:54;9.10;99.90
53045;DHT22;38930;52.766;6.884;2023-12-29T07:26:20;9.00;99.90
53045;DHT22;38930;52.766;6.884;2023-12-29T07:28:46;9.00;99.90
53045;DHT22;38930;52.766;6.884;2023-12-29T07:31:11;9.00;99.90
53045;DHT22;38930;52.766;6.884;2023-12-29T07:33:37;9.00;99.90
53045;DHT22;38930;52.766;6.884;2023-12-29T07:36:03;9.00;99.90
53045;DHT22;38930;52.766;6.884;2023-12-29T07:38:29;9.00;99.90
53045;DHT22;38930;52.766;6.884;2023-12-29T07:40:55;9.00;99.90
53045;DHT22;38930;52.766;6.884;2023-12-29T07:43:20;9.00;99.90
53045;DHT22;38930;52.766;6.884;2023-12-29T07:45:47;8.90;99.90
53045;DHT22;38930;52.766;6.884;2023-12-29T07:48:13;8.90;99.90
53045;DHT22;38930;52.766;6.884;2023-12-29T07:50:38;8.90;99.90
53045;DHT22;38930;52.766;6.884;2023-12-29T07:53:04;8.90;99.90
53045;DHT22;38930;52.766;6.884;2023-12-29T07:55:31;8.90;99.90
53045;DHT22;38930;52.766;6.884;2023-12-29T07:57:56;8.90;99.90
53045;DHT22;38930;52.766;6.884;2023-12-29T08:00:22;8.80;99.90
53045;DHT22;38930;52.766;6.884;2023-12-29T08:02:48;9.60;99.90
53045;DHT22;38930;52.766;6.884;2023-12-29T08:05:14;8.90;99.90
53045;DHT22;38930;52.766;6.884;2023-12-29T08:07:41;8.90;99.90
53045;DHT22;38930;52.766;6.884;2023-12-29T08:10:07;8.90;99.90
53045;DHT22;38930;52.766;6.884;2023-12-29T08:12:33;8.90;99.90
53045;DHT22;38930;52.766;6.884;2023-12-29T08:14:59;9.00;99.90
53045;DHT22;38930;52.766;6.884;2023-12-29T08:17:25;8.90;99.90
53045;DHT22;38930;52.766;6.884;2023-12-29T08:19:51;9.10;99.90
53045;DHT22;38930;52.766;6.884;2023-12-29T08:22:17;9.30;99.90
53045;DHT22;38930;52.766;6.884;2023-12-29T08:24:42;9.00;99.90
53045;DHT22;38930;52.766;6.884;2023-12-29T08:27:14;8.90;99.90
53045;DHT22;38930;52.766;6.884;2023-12-29T08:29:40;9.50;99.90
53045;DHT22;38930;52.766;6.884;2023-12-29T08:32:07;8.90;99.90
53045;DHT22;38930;52.766;6.884;2023-12-29T08:34:32;9.00;99.90
53045;DHT22;38930;52.766;6.884;2023-12-29T08:36:59;9.00;99.90
53045;DHT22;38930;52.766;6.884;2023-12-29T08:39:25;9.00;99.90
53045;DHT22;38930;52.766;6.884;2023-12-29T08:41:51;9.00;99.90
53045;DHT22;38930;52.766;6.884;2023-12-29T08:44:16;9.00;99.90
53045;DHT22;38930;52.766;6.884;2023-12-29T08:46:42;9.00;99.90
53045;DHT22;38930;52.766;6.884;2023-12-29T08:49:07;9.10;99.90
53045;DHT22;38930;52.766;6.884;2023-12-29T08:51:33;9.00;99.90
53045;DHT22;38930;52.766;6.884;2023-12-29T08:53:59;9.00;99.90
53045;DHT22;38930;52.766;6.884;2023-12-29T08:56:24;9.60;99.90
53045;DHT22;38930;52.766;6.884;2023-12-29T08:58:50;9.00;99.90
53045;DHT22;38930;52.766;6.884;2023-12-29T09:01:16;9.40;99.90
53045;DHT22;38930;52.766;6.884;2023-12-29T09:03:42;9.30;99.90
53045;DHT22;38930;52.766;6.884;2023-12-29T09:06:08;9.00;99.90
53045;DHT22;38930;52.766;6.884;2023-12-29T09:08:34;9.00;99.90
53045;DHT22;38930;52.766;6.884;2023-12-29T09:11:01;9.50;99.90
53045;DHT22;38930;52.766;6.884;2023-12-29T09:13:26;9.00;99.90
53045;DHT22;38930;52.766;6.884;2023-12-29T09:15:53;9.10;99.90
53045;DHT22;38930;52.766;6.884;2023-12-29T09:18:19;9.10;99.90
53045;DHT22;38930;52.766;6.884;2023-12-29T09:20:44;9.40;99.90
53045;DHT22;38930;52.766;6.884;2023-12-29T09:23:10;9.20;99.90
53045;DHT22;38930;52.766;6.884;2023-12-29T09:25:36;9.30;99.90
53045;DHT22;38930;52.766;6.884;2023-12-29T09:28:01;9.30;99.90
53045;DHT22;38930;52.766;6.884;2023-12-29T09:30:27;9.30;99.90
53045;DHT22;38930;52.766;6.884;2023-12-29T09:32:53;9.60;99.90
53045;DHT22;38930;52.766;6.884;2023-12-29T09:35:18;9.30;99.90
53045;DHT22;38930;52.766;6.884;2023-12-29T09:37:49;9.30;99.90
53045;DHT22;38930;52.766;6.884;2023-12-29T09:40:14;9.40;99.90
53045;DHT22;38930;52.766;6.884;2023-12-29T09:42:43;9.40;99.90
53045;DHT22;38930;52.766;6.884;2023-12-29T09:45:11;9.40;99.90
53045;DHT22;38930;52.766;6.884;2023-12-29T09:47:39;9.40;99.90
53045;DHT22;38930;52.766;6.884;2023-12-29T09:50:06;9.40;99.90
53045;DHT22;38930;52.766;6.884;2023-12-29T09:52:33;9.30;99.90
53045;DHT22;38930;52.766;6.884;2023-12-29T09:54:59;9.30;99.90
53045;DHT22;38930;52.766;6.884;2023-12-29T09:57:26;9.30;99.90
53045;DHT22;38930;52.766;6.884;2023-12-29T09:59:53;9.30;99.90
53045;DHT22;38930;52.766;6.884;2023-12-29T10:02:20;9.40;99.90
53045;DHT22;38930;52.766;6.884;2023-12-29T10:04:47;10.00;99.90
53045;DHT22;38930;52.766;6.884;2023-12-29T10:07:26;9.50;99.90
53045;DHT22;38930;52.766;6.884;2023-12-29T10:09:58;9.30;99.90
53045;DHT22;38930;52.766;6.884;2023-12-29T10:12:25;9.30;99.90
53045;DHT22;38930;52.766;6.884;2023-12-29T10:15:12;9.40;99.90
53045;DHT22;38930;52.766;6.884;2023-12-29T10:21:01;9.20;99.90
53045;DHT22;38930;52.766;6.884;2023-12-29T10:23:30;9.20;99.90
53045;DHT22;38930;52.766;6.884;2023-12-29T10:25:57;9.20;99.90
53045;DHT22;38930;52.766;6.884;2023-12-29T10:28:23;9.10;99.90
53045;DHT22;38930;52.766;6.884;2023-12-29T10:30:49;9.10;99.90
53045;DHT22;38930;52.766;6.884;2023-12-29T10:33:21;9.10;99.90
53045;DHT22;38930;52.766;6.884;2023-12-29T10:36:00;8.90;99.90
53045;DHT22;38930;52.766;6.884;2023-12-29T10:38:30;8.80;99.90
53045;DHT22;38930;52.766;6.884;2023-12-29T10:41:12;8.70;99.90
53045;DHT22;38930;52.766;6.884;2023-12-29T10:43:38;8.50;99.90
53045;DHT22;38930;52.766;6.884;2023-12-29T10:46:08;8.30;99.90
53045;DHT22;38930;52.766;6.884;2023-12-29T10:48:34;8.20;99.90
53045;DHT22;38930;52.766;6.884;2023-12-29T10:51:00;8.10;99.90
53045;DHT22;38930;52.766;6.884;2023-12-29T10:53:29;8.00;99.90
53045;DHT22;38930;52.766;6.884;2023-12-29T10:55:56;8.00;99.90
53045;DHT22;38930;52.766;6.884;2023-12-29T10:58:27;7.90;99.90
53045;DHT22;38930;52.766;6.884;2023-12-29T11:00:55;7.90;99.90
53045;DHT22;38930;52.766;6.884;2023-12-29T11:03:21;8.50;99.90
53045;DHT22;38930;52.766;6.884;2023-12-29T11:05:47;8.00;99.90
53045;DHT22;38930;52.766;6.884;2023-12-29T11:08:20;7.90;99.90
53045;DHT22;38930;52.766;6.884;2023-12-29T11:10:48;8.00;99.90
53045;DHT22;38930;52.766;6.884;2023-12-29T11:13:14;8.10;99.90
53045;DHT22;38930;52.766;6.884;2023-12-29T11:15:43;8.00;99.90
53045;DHT22;38930;52.766;6.884;2023-12-29T11:18:16;8.10;99.90
53045;DHT22;38930;52.766;6.884;2023-12-29T11:20:44;8.20;99.90
53045;DHT22;38930;52.766;6.884;2023-12-29T11:23:10;8.20;99.90
53045;DHT22;38930;52.766;6.884;2023-12-29T11:25:39;8.40;99.90
53045;DHT22;38930;52.766;6.884;2023-12-29T11:28:08;8.40;99.90
53045;DHT22;38930;52.766;6.884;2023-12-29T11:30:35;8.60;99.90
53045;DHT22;38930;52.766;6.884;2023-12-29T11:33:18;8.60;99.90
53045;DHT22;38930;52.766;6.884;2023-12-29T11:44:03;8.70;99.90
53045;DHT22;38930;52.766;6.884;2023-12-29T11:46:36;8.70;99.90
53045;DHT22;38930;52.766;6.884;2023-12-29T11:49:02;8.70;99.90
53045;DHT22;38930;52.766;6.884;2023-12-29T11:51:34;8.80;99.90
53045;DHT22;38930;52.766;6.884;2023-12-29T11:54:03;8.80;99.90
53045;DHT22;38930;52.766;6.884;2023-12-29T11:56:40;8.80;99.90
53045;DHT22;38930;52.766;6.884;2023-12-29T12:01:39;8.90;99.90
53045;DHT22;38930;52.766;6.884;2023-12-29T12:04:37;8.90;99.90
53045;DHT22;38930;52.766;6.884;2023-12-29T12:09:38;9.00;99.90
53045;DHT22;38930;52.766;6.884;2023-12-29T12:12:05;9.00;99.90
53045;DHT22;38930;52.766;6.884;2023-12-29T12:17:31;9.10;99.90
53045;DHT22;38930;52.766;6.884;2023-12-29T12:22:31;9.90;99.90
53045;DHT22;38930;52.766;6.884;2023-12-29T12:24:58;9.50;99.90
53045;DHT22;38930;52.766;6.884;2023-12-29T12:27:28;9.30;99.90
53045;DHT22;38930;52.766;6.884;2023-12-29T12:29:55;9.30;99.90
53045;DHT22;38930;52.766;6.884;2023-12-29T12:32:23;9.40;99.90
53045;DHT22;38930;52.766;6.884;2023-12-29T12:34:49;9.40;99.90
53045;DHT22;38930;52.766;6.884;2023-12-29T12:37:22;9.40;99.90
53045;DHT22;38930;52.766;6.884;2023-12-29T12:39:48;9.40;99.90
53045;DHT22;38930;52.766;6.884;2023-12-29T12:42:15;9.40;99.90
53045;DHT22;38930;52.766;6.884;2023-12-29T12:44:46;10.20;99.90
53045;DHT22;38930;52.766;6.884;2023-12-29T12:47:17;9.40;99.90
53045;DHT22;38930;52.766;6.884;2023-12-29T12:49:44;9.40;99.90
53045;DHT22;38930;52.766;6.884;2023-12-29T12:52:10;9.40;99.90
53045;DHT22;38930;52.766;6.884;2023-12-29T12:54:36;9.50;99.90
53045;DHT22;38930;52.766;6.884;2023-12-29T12:57:02;9.40;99.90
53045;DHT22;38930;52.766;6.884;2023-12-29T12:59:28;9.40;99.90
53045;DHT22;38930;52.766;6.884;2023-12-29T13:01:54;9.50;99.90
53045;DHT22;38930;52.766;6.884;2023-12-29T13:04:20;9.40;99.90
53045;DHT22;38930;52.766;6.884;2023-12-29T13:06:46;9.60;99.90
53045;DHT22;38930;52.766;6.884;2023-12-29T13:09:12;9.50;99.90
53045;DHT22;38930;52.766;6.884;2023-12-29T13:11:39;9.50;99.90
53045;DHT22;38930;52.766;6.884;2023-12-29T13:14:06;9.40;99.90
53045;DHT22;38930;52.766;6.884;2023-12-29T13:16:34;10.10;99.90
53045;DHT22;38930;52.766;6.884;2023-12-29T13:19:20;10.30;99.90
53045;DHT22;38930;52.766;6.884;2023-12-29T13:21:52;9.70;99.90
53045;DHT22;38930;52.766;6.884;2023-12-29T13:24:25;9.40;99.90
53045;DHT22;38930;52.766;6.884;2023-12-29T13:26:52;9.40;99.90
53045;DHT22;38930;52.766;6.884;2023-12-29T13:29:21;9.40;99.90
53045;DHT22;38930;52.766;6.884;2023-12-29T13:31:48;9.40;99.90
53045;DHT22;38930;52.766;6.884;2023-12-29T13:34:21;9.40;99.90
53045;DHT22;38930;52.766;6.884;2023-12-29T13:37:02;9.40;99.90
53045;DHT22;38930;52.766;6.884;2023-12-29T13:42:02;9.40;99.90
53045;DHT22;38930;52.766;6.884;2023-12-29T13:44:29;9.40;99.90
53045;DHT22;38930;52.766;6.884;2023-12-29T13:46:56;10.00;99.90
53045;DHT22;38930;52.766;6.884;2023-12-29T13:49:22;9.40;99.90
53045;DHT22;38930;52.766;6.884;2023-12-29T13:51:48;9.30;99.90
53045;DHT22;38930;52.766;6.884;2023-12-29T13:54:14;9.40;99.90
53045;DHT22;38930;52.766;6.884;2023-12-29T13:56:53;9.40;99.90
53045;DHT22;38930;52.766;6.884;2023-12-29T13:59:28;9.30;99.90
53045;DHT22;38930;52.766;6.884;2023-12-29T14:01:54;9.30;99.90
53045;DHT22;38930;52.766;6.884;2023-12-29T14:04:19;9.30;99.90
53045;DHT22;38930;52.766;6.884;2023-12-29T14:06:59;9.30;99.90
53045;DHT22;38930;52.766;6.884;2023-12-29T14:09:26;9.40;99.90
53045;DHT22;38930;52.766;6.884;2023-12-29T14:11:52;9.40;99.90
53045;DHT22;38930;52.766;6.884;2023-12-29T14:14:22;9.40;99.90
53045;DHT22;38930;52.766;6.884;2023-12-29T14:16:48;9.40;99.90
53045;DHT22;38930;52.766;6.884;2023-12-29T14:19:13;9.30;99.90
53045;DHT22;38930;52.766;6.884;2023-12-29T14:21:39;10.20;99.90
53045;DHT22;38930;52.766;6.884;2023-12-29T14:24:15;9.70;99.90
53045;DHT22;38930;52.766;6.884;2023-12-29T14:26:54;9.80;99.90
53045;DHT22;38930;52.766;6.884;2023-12-29T14:29:21;9.60;99.90
53045;DHT22;38930;52.766;6.884;2023-12-29T14:31:48;9.30;99.90
53045;DHT22;38930;52.766;6.884;2023-12-29T14:34:14;9.30;99.90
53045;DHT22;38930;52.766;6.884;2023-12-29T14:36:41;9.30;99.90
53045;DHT22;38930;52.766;6.884;2023-12-29T14:39:07;9.20;99.90
53045;DHT22;38930;52.766;6.884;2023-12-29T14:41:33;9.20;99.90
53045;DHT22;38930;52.766;6.884;2023-12-29T14:43:59;9.20;99.90
53045;DHT22;38930;52.766;6.884;2023-12-29T14:46:25;9.20;99.90
53045;DHT22;38930;52.766;6.884;2023-12-29T14:48:52;9.70;99.90
53045;DHT22;38930;52.766;6.884;2023-12-29T14:51:18;9.10;99.90
53045;DHT22;38930;52.766;6.884;2023-12-29T14:53:45;9.10;99.90
53045;DHT22;38930;52.766;6.884;2023-12-29T14:56:13;9.20;99.90
53045;DHT22;38930;52.766;6.884;2023-12-29T14:58:38;9.30;99.90
53045;DHT22;38930;52.766;6.884;2023-12-29T15:01:04;9.20;99.90
53045;DHT22;38930;52.766;6.884;2023-12-29T15:03:30;9.20;99.90
53045;DHT22;38930;52.766;6.884;2023-12-29T15:06:15;9.20;99.90
53045;DHT22;38930;52.766;6.884;2023-12-29T15:08:41;9.20;99.90
53045;DHT22;38930;52.766;6.884;2023-12-29T15:11:07;9.30;99.90
53045;DHT22;38930;52.766;6.884;2023-12-29T15:13:33;9.10;99.90
53045;DHT22;38930;52.766;6.884;2023-12-29T15:16:00;9.10;99.90
53045;DHT22;38930;52.766;6.884;2023-12-29T15:18:29;9.20;99.90
53045;DHT22;38930;52.766;6.884;2023-12-29T15:20:56;9.10;99.90
53045;DHT22;38930;52.766;6.884;2023-12-29T15:23:21;9.00;99.90
53045;DHT22;38930;52.766;6.884;2023-12-29T15:25:49;9.00;99.90
53045;DHT22;38930;52.766;6.884;2023-12-29T15:28:15;9.00;99.90
53045;DHT22;38930;52.766;6.884;2023-12-29T15:30:43;9.00;99.90
53045;DHT22;38930;52.766;6.884;2023-12-29T15:33:08;8.90;99.90
53045;DHT22;38930;52.766;6.884;2023-12-29T15:35:34;8.90;99.90
53045;DHT22;38930;52.766;6.884;2023-12-29T15:37:59;8.80;99.90
53045;DHT22;38930;52.766;6.884;2023-12-29T15:40:25;8.80;99.90
53045;DHT22;38930;52.766;6.884;2023-12-29T15:42:50;8.80;99.90
53045;DHT22;38930;52.766;6.884;2023-12-29T15:45:16;8.70;99.90
53045;DHT22;38930;52.766;6.884;2023-12-29T15:47:44;8.70;99.90
53045;DHT22;38930;52.766;6.884;2023-12-29T15:50:10;8.70;99.90
53045;DHT22;38930;52.766;6.884;2023-12-29T15:52:35;8.70;99.90
53045;DHT22;38930;52.766;6.884;2023-12-29T15:55:01;8.70;99.90
53045;DHT22;38930;52.766;6.884;2023-12-29T15:57:26;8.70;99.90
53045;DHT22;38930;52.766;6.884;2023-12-29T15:59:52;9.20;99.90
53045;DHT22;38930;52.766;6.884;2023-12-29T16:02:18;8.70;99.90
53045;DHT22;38930;52.766;6.884;2023-12-29T16:04:43;8.80;99.90
53045;DHT22;38930;52.766;6.884;2023-12-29T16:07:09;8.80;99.90
53045;DHT22;38930;52.766;6.884;2023-12-29T16:09:35;8.80;99.90
53045;DHT22;38930;52.766;6.884;2023-12-29T16:12:01;9.00;99.90
53045;DHT22;38930;52.766;6.884;2023-12-29T16:14:27;8.70;99.90